Time;durP1;ratioP1;P1;durP2;ratioP2;P2;SDS_P1;SDS_P2;PMS_P1;PMS_P2;Temp;Humidity;BMP_temperature;BMP_pressure;BME280_temperature;BME280_humidity;BME280_pressure;Samples;Min_cycle;Max_cycle;Signal;HPM_P1;HPM_P2
2023/06/22 00:01:36;;;;;;;0.50;0.50;;;;;;;21.34;100.00;95678.59;5071489;28;20449;-66
2023/06/22 00:04:04;;;;;;;0.57;0.40;;;;;;;21.66;100.00;95676.28;5071523;28;20815;-66
2023/06/22 00:06:33;;;;;;;0.83;0.83;;;;;;;21.48;100.00;95673.72;5070827;28;20808;-67
2023/06/22 00:09:03;;;;;;;0.50;0.50;;;;;;;21.62;100.00;95683.47;5071039;28;20938;-68
2023/06/22 00:11:33;;;;;;;0.80;0.80;;;;;;;21.69;100.00;95683.72;5071003;28;20569;-67
2023/06/22 00:14:01;;;;;;;0.50;0.30;;;;;;;21.44;100.00;95690.91;5070877;28;20433;-68
2023/06/22 00:16:29;;;;;;;0.40;0.30;;;;;;;21.56;100.00;95696.34;5070831;28;20716;-68
2023/06/22 00:19:00;;;;;;;0.60;0.40;;;;;;;21.44;100.00;95699.00;5071078;28;20437;-68
2023/06/22 00:21:28;;;;;;;0.87;0.87;;;;;;;21.64;100.00;95694.72;5070813;28;20480;-68
2023/06/22 00:23:57;;;;;;;0.70;0.60;;;;;;;21.67;100.00;95704.84;5070934;28;20453;-68
2023/06/22 00:26:27;;;;;;;1.13;1.03;;;;;;;21.36;100.00;95705.22;5070970;28;20507;-69
2023/06/22 00:28:55;;;;;;;0.63;0.63;;;;;;;20.99;100.00;95703.38;5070560;28;20548;-69
2023/06/22 00:31:23;;;;;;;0.90;0.53;;;;;;;21.19;100.00;95705.34;5070458;28;20445;-69
2023/06/22 00:33:52;;;;;;;0.53;0.30;;;;;;;21.13;100.00;95720.91;5070611;28;20477;-69
2023/06/22 00:36:20;;;;;;;1.33;0.47;;;;;;;21.36;100.00;95719.50;5071124;28;20442;-68
2023/06/22 00:38:50;;;;;;;0.60;0.53;;;;;;;21.37;100.00;95720.31;5070152;28;20438;-69
2023/06/22 00:41:19;;;;;;;0.60;0.40;;;;;;;21.45;100.00;95725.63;5070824;28;20440;-68
2023/06/22 00:43:48;;;;;;;0.40;0.33;;;;;;;21.47;100.00;95720.72;5070816;28;20872;-69
2023/06/22 00:46:16;;;;;;;0.50;0.40;;;;;;;21.37;100.00;95726.50;5070669;28;21003;-65
2023/06/22 00:48:45;;;;;;;0.80;0.77;;;;;;;21.41;100.00;95718.53;5070514;28;20900;-69
2023/06/22 00:51:13;;;;;;;0.40;0.30;;;;;;;21.37;100.00;95721.09;5070674;28;20441;-69
2023/06/22 00:53:43;;;;;;;0.70;0.40;;;;;;;21.30;100.00;95714.66;5071184;28;20840;-69
2023/06/22 00:56:12;;;;;;;0.60;0.50;;;;;;;20.79;100.00;95649.13;5069969;28;20437;-69
2023/06/22 00:58:41;;;;;;;0.57;0.40;;;;;;;21.30;100.00;95720.03;5070738;28;20445;-70
2023/06/22 01:01:11;;;;;;;4.30;0.77;;;;;;;21.26;100.00;95719.88;5069859;28;20456;-70
2023/06/22 01:03:39;;;;;;;1.50;0.50;;;;;;;21.18;100.00;95712.63;5070669;28;20426;-71
2023/06/22 01:06:11;;;;;;;0.53;0.53;;;;;;;21.22;100.00;95710.09;5070132;28;20949;-71
2023/06/22 01:08:52;;;;;;;0.40;0.40;;;;;;;21.17;100.00;95711.06;5070869;28;20481;-71
2023/06/22 01:11:29;;;;;;;0.50;0.30;;;;;;;21.00;100.00;95727.28;5070226;28;20535;-72
2023/06/22 01:14:04;;;;;;;0.70;0.60;;;;;;;20.73;100.00;95723.16;5070477;28;20873;-72
2023/06/22 01:16:38;;;;;;;0.80;0.50;;;;;;;20.77;100.00;95713.28;5070622;28;20953;-72
2023/06/22 01:19:17;;;;;;;0.50;0.40;;;;;;;20.89;100.00;95716.13;5070603;28;20876;-71
2023/06/22 01:21:46;;;;;;;0.50;0.40;;;;;;;21.02;100.00;95724.28;5070376;28;21036;-72
2023/06/22 01:24:23;;;;;;;0.50;0.43;;;;;;;21.02;100.00;95713.50;5071157;28;20437;-71
2023/06/22 01:27:00;;;;;;;0.50;0.50;;;;;;;20.63;100.00;95652.69;5070456;28;20432;-71
2023/06/22 01:29:31;;;;;;;0.50;0.40;;;;;;;21.00;100.00;95704.97;5070453;28;20508;-72
2023/06/22 01:32:01;;;;;;;0.60;0.60;;;;;;;20.95;100.00;95708.59;5070721;28;20499;-72
2023/06/22 01:34:32;;;;;;;0.50;0.30;;;;;;;20.87;100.00;95701.38;5070062;28;20441;-71
2023/06/22 01:37:02;;;;;;;2.27;0.67;;;;;;;20.85;100.00;95708.97;5070544;28;20825;-72
2023/06/22 01:39:31;;;;;;;0.40;0.30;;;;;;;20.72;100.00;95734.25;5069866;28;20499;-71
2023/06/22 01:42:01;;;;;;;0.73;0.73;;;;;;;20.73;100.00;95719.66;5070202;28;20926;-72
2023/06/22 01:44:31;;;;;;;0.40;0.30;;;;;;;20.78;100.00;95722.97;5078602;28;20555;-72
2023/06/22 01:47:01;;;;;;;0.40;0.30;;;;;;;20.85;100.00;95725.94;5076258;28;20487;-72
2023/06/22 01:49:29;;;;;;;0.87;0.87;;;;;;;20.72;100.00;95731.56;5073286;28;21054;-73
2023/06/22 01:51:58;;;;;;;1.27;0.57;;;;;;;20.07;100.00;95732.63;5073871;28;20504;-73
2023/06/22 01:54:26;;;;;;;0.70;0.63;;;;;;;20.08;100.00;95736.91;5073418;28;20516;-72
2023/06/22 01:56:54;;;;;;;0.77;0.77;;;;;;;19.99;100.00;95735.31;5074052;28;20457;-72
2023/06/22 01:59:29;;;;;;;1.03;0.80;;;;;;;19.75;100.00;95727.75;5070425;28;20546;-74
2023/06/22 02:02:03;;;;;;;0.60;0.50;;;;;;;20.08;100.00;95745.00;5064917;28;20437;-74
2023/06/22 02:04:36;;;;;;;0.63;0.40;;;;;;;20.30;100.00;95740.53;5073118;28;20945;-74
2023/06/22 02:07:10;;;;;;;0.60;0.50;;;;;;;20.36;100.00;95734.69;5073156;28;20446;-72
2023/06/22 02:09:43;;;;;;;0.80;0.80;;;;;;;20.36;100.00;95728.50;5048552;28;20535;-74
2023/06/22 02:12:13;;;;;;;0.80;0.80;;;;;;;19.97;100.00;95729.47;5072776;28;20834;-73
2023/06/22 02:14:42;;;;;;;1.03;0.40;;;;;;;20.17;100.00;95734.19;5073632;28;20835;-74
2023/06/22 02:17:12;;;;;;;0.40;0.30;;;;;;;20.31;100.00;95742.13;5072966;28;20986;-73
2023/06/22 02:19:42;;;;;;;0.50;0.40;;;;;;;20.34;100.00;95736.88;5073430;28;20437;-73
2023/06/22 02:22:12;;;;;;;0.50;0.33;;;;;;;20.40;100.00;95729.44;5073508;28;20457;-73
2023/06/22 02:24:40;;;;;;;1.03;1.03;;;;;;;20.35;100.00;95737.66;5073186;28;20433;-74
2023/06/22 02:27:10;;;;;;;0.40;0.40;;;;;;;20.23;100.00;95744.53;5073086;28;20464;-73
2023/06/22 02:29:38;;;;;;;0.60;0.47;;;;;;;20.26;100.00;95754.63;5073045;28;20477;-73
2023/06/22 02:32:07;;;;;;;0.70;0.40;;;;;;;20.26;100.00;95745.78;5072861;28;20442;-74
2023/06/22 02:34:37;;;;;;;0.60;0.30;;;;;;;20.54;100.00;95760.44;5060355;28;20820;-74
2023/06/22 02:37:05;;;;;;;0.80;0.40;;;;;;;20.32;100.00;95724.84;5072451;28;20747;-73
2023/06/22 02:39:34;;;;;;;1.60;0.30;;;;;;;20.20;100.00;95747.81;5072949;28;20444;-73
2023/06/22 02:42:02;;;;;;;1.70;0.87;;;;;;;19.99;100.00;95746.88;5072686;28;20448;-74
2023/06/22 02:44:30;;;;;;;0.40;0.40;;;;;;;19.75;100.00;95741.22;5072933;28;20430;-74
2023/06/22 02:46:59;;;;;;;0.80;0.70;;;;;;;19.40;100.00;95764.59;5072894;28;20434;-74
2023/06/22 02:49:27;;;;;;;1.77;0.70;;;;;;;19.34;100.00;95756.94;5072534;28;21079;-73
2023/06/22 02:51:58;;;;;;;0.90;0.80;;;;;;;19.42;100.00;95764.28;5072984;28;20434;-71
2023/06/22 02:54:27;;;;;;;4.10;1.13;;;;;;;19.39;100.00;95746.06;5072568;28;20442;-71
2023/06/22 02:56:55;;;;;;;0.63;0.63;;;;;;;19.58;100.00;95762.72;5072412;28;20474;-73
2023/06/22 02:59:24;;;;;;;0.70;0.70;;;;;;;19.70;100.00;95773.63;5072055;28;20570;-73
2023/06/22 03:01:53;;;;;;;1.77;1.13;;;;;;;19.73;100.00;95766.84;5072250;28;20511;-72
2023/06/22 03:04:21;;;;;;;0.80;0.50;;;;;;;19.93;100.00;95763.53;5072318;28;20519;-72
2023/06/22 03:06:50;;;;;;;0.63;0.53;;;;;;;20.13;100.00;95766.34;5072107;28;20433;-51
2023/06/22 03:09:21;;;;;;;0.60;0.50;;;;;;;20.21;100.00;95759.38;5072142;28;20922;-51
2023/06/22 03:11:49;;;;;;;1.50;1.40;;;;;;;20.18;100.00;95776.16;5071639;28;20465;-52
2023/06/22 03:14:18;;;;;;;0.73;0.73;;;;;;;20.36;100.00;95777.75;5046209;28;20651;-51
2023/06/22 03:16:46;;;;;;;0.83;0.83;;;;;;;20.42;100.00;95781.06;5071202;28;20496;-51
2023/06/22 03:19:15;;;;;;;0.87;0.80;;;;;;;20.52;100.00;95781.50;5072309;28;20525;-51
2023/06/22 03:21:43;;;;;;;0.50;0.47;;;;;;;20.47;100.00;95775.50;5071509;28;20472;-51
2023/06/22 03:24:11;;;;;;;0.50;0.50;;;;;;;20.10;100.00;95764.28;5071637;28;20445;-51
2023/06/22 03:26:41;;;;;;;0.83;0.83;;;;;;;20.13;100.00;95779.00;5071562;28;20449;-51
2023/06/22 03:29:09;;;;;;;1.27;0.97;;;;;;;20.53;100.00;95771.53;5071881;28;20977;-52
2023/06/22 03:31:38;;;;;;;1.00;0.60;;;;;;;20.79;100.00;95772.25;5071340;28;20438;-52
2023/06/22 03:34:06;;;;;;;1.00;0.90;;;;;;;20.83;100.00;95770.47;5071322;28;20487;-52
2023/06/22 03:36:34;;;;;;;0.60;0.60;;;;;;;20.88;100.00;95768.41;5071438;28;20437;-52
2023/06/22 03:39:03;;;;;;;0.50;0.47;;;;;;;21.05;100.00;95751.34;5071144;28;20446;-53
2023/06/22 03:41:31;;;;;;;0.77;0.77;;;;;;;20.86;100.00;95748.28;5057853;28;20460;-52
2023/06/22 03:44:01;;;;;;;2.23;2.13;;;;;;;20.54;100.00;95751.59;5071538;28;20441;-52
2023/06/22 03:46:30;;;;;;;1.23;0.70;;;;;;;20.81;100.00;95760.03;5070945;28;20938;-52
2023/06/22 03:48:58;;;;;;;1.27;1.17;;;;;;;20.82;100.00;95763.53;5071187;28;20845;-53
2023/06/22 03:51:26;;;;;;;1.23;1.13;;;;;;;20.72;100.00;95780.06;5070927;28;20440;-52
2023/06/22 03:53:54;;;;;;;0.77;0.47;;;;;;;20.84;100.00;95790.94;5071040;28;21020;-52
2023/06/22 03:56:23;;;;;;;1.77;0.70;;;;;;;20.84;100.00;95790.94;5070517;28;20957;-53
2023/06/22 03:58:51;;;;;;;3.43;0.87;;;;;;;20.70;100.00;95788.44;5071265;28;20441;-53
2023/06/22 04:01:21;;;;;;;5.37;1.00;;;;;;;20.74;100.00;95794.78;5045031;28;20825;-53
2023/06/22 04:03:49;;;;;;;1.63;0.77;;;;;;;20.61;100.00;95792.28;5070845;28;20448;-52
2023/06/22 04:06:18;;;;;;;0.70;0.70;;;;;;;20.66;100.00;95792.09;5070497;28;20529;-52
2023/06/22 04:08:50;;;;;;;0.77;0.77;;;;;;;20.56;100.00;95779.78;5070968;28;20771;-52
2023/06/22 04:11:19;;;;;;;1.80;1.70;;;;;;;20.74;100.00;95799.38;5070776;28;20477;-53
2023/06/22 04:13:48;;;;;;;0.50;0.50;;;;;;;20.80;100.00;95795.38;5070819;28;20457;-53
2023/06/22 04:16:17;;;;;;;0.83;0.80;;;;;;;20.83;100.00;95792.03;5070913;28;20439;-53
2023/06/22 04:18:46;;;;;;;1.40;1.30;;;;;;;20.86;100.00;95796.78;5070704;28;20995;-53
2023/06/22 04:21:15;;;;;;;0.90;0.50;;;;;;;21.00;100.00;95802.75;5071022;28;20463;-53
2023/06/22 04:23:44;;;;;;;1.20;0.70;;;;;;;21.00;100.00;95801.97;5070659;28;20477;-54
2023/06/22 04:26:12;;;;;;;1.10;0.70;;;;;;;21.18;100.00;95795.41;5070656;28;20433;-54
2023/06/22 04:28:40;;;;;;;0.80;0.80;;;;;;;21.25;100.00;95793.03;5070242;28;20433;-54
2023/06/22 04:31:10;;;;;;;0.80;0.80;;;;;;;21.33;100.00;95792.16;5070355;28;20485;-54
2023/06/22 04:33:40;;;;;;;0.80;0.80;;;;;;;21.15;100.00;95742.94;5069973;28;20571;-54
2023/06/22 04:36:13;;;;;;;0.50;0.40;;;;;;;21.50;100.00;95798.25;5069824;28;20521;-53
2023/06/22 04:38:42;;;;;;;0.73;0.73;;;;;;;21.51;100.00;95794.44;5045951;28;20516;-54
2023/06/22 04:41:14;;;;;;;0.60;0.60;;;;;;;21.38;100.00;95787.38;5070863;28;20445;-55
2023/06/22 04:43:42;;;;;;;0.80;0.80;;;;;;;21.52;100.00;95800.63;5070883;28;20522;-56
2023/06/22 04:46:11;;;;;;;0.80;0.80;;;;;;;21.51;100.00;95799.84;5070727;28;20441;-55
2023/06/22 04:48:39;;;;;;;1.27;1.17;;;;;;;21.60;100.00;95801.69;5070504;28;20958;-55
2023/06/22 04:51:08;;;;;;;1.23;0.37;;;;;;;21.79;100.00;95810.94;5070552;28;20509;-56
2023/06/22 04:53:41;;;;;;;0.63;0.63;;;;;;;21.58;100.00;95806.63;5070996;28;20506;-56
2023/06/22 04:56:09;;;;;;;0.60;0.60;;;;;;;21.84;100.00;95807.25;5070437;28;20441;-62
2023/06/22 04:58:38;;;;;;;0.60;0.60;;;;;;;22.00;100.00;95810.97;5070606;28;20961;-62
2023/06/22 05:01:06;;;;;;;0.57;0.57;;;;;;;22.14;100.00;95806.88;5070185;28;20434;-62
2023/06/22 05:03:36;;;;;;;0.60;0.50;;;;;;;22.16;100.00;95805.78;5070689;28;20499;-61
2023/06/22 05:06:05;;;;;;;2.60;2.27;;;;;;;21.90;100.00;95809.47;5070231;28;20451;-61
2023/06/22 05:08:33;;;;;;;1.23;1.07;;;;;;;21.86;100.00;95800.44;5070339;28;20473;-61
2023/06/22 05:11:03;;;;;;;1.90;1.80;;;;;;;21.09;100.00;95798.16;5063354;28;20493;-61
2023/06/22 05:13:33;;;;;;;9.93;1.10;;;;;;;21.28;100.00;95812.03;5064310;28;20894;-61
2023/06/22 05:16:02;;;;;;;2.27;1.40;;;;;;;21.68;100.00;95811.66;5071099;28;20437;-61
2023/06/22 05:18:31;;;;;;;2.93;2.23;;;;;;;21.48;100.00;95810.47;5061090;28;20889;-60
2023/06/22 05:21:00;;;;;;;2.53;0.93;;;;;;;21.78;100.00;95808.56;5074646;28;20445;-60
2023/06/22 05:23:29;;;;;;;0.83;0.80;;;;;;;22.25;100.00;95814.56;5074257;28;20789;-60
2023/06/22 05:25:57;;;;;;;1.00;0.90;;;;;;;22.56;100.00;95815.75;5073979;28;20941;-60
2023/06/22 05:28:28;;;;;;;2.77;1.30;;;;;;;22.24;100.00;95815.72;5073850;28;20429;-59
2023/06/22 05:30:56;;;;;;;0.67;0.63;;;;;;;22.72;100.00;95803.19;5073830;28;20481;-59
2023/06/22 05:33:24;;;;;;;1.40;1.30;;;;;;;22.71;95.66;95806.22;5073152;28;20983;-57
2023/06/22 05:35:53;;;;;;;0.77;0.70;;;;;;;22.93;97.79;95802.31;5073772;28;20913;-57
2023/06/22 05:38:21;;;;;;;0.70;0.70;;;;;;;22.98;100.00;95799.41;5073328;28;20938;-57
2023/06/22 05:40:49;;;;;;;1.17;0.80;;;;;;;23.36;98.81;95789.09;5073529;28;20506;-56
2023/06/22 05:43:18;;;;;;;0.60;0.50;;;;;;;23.37;93.01;95796.09;5073440;28;20433;-57
2023/06/22 05:45:47;;;;;;;1.03;0.57;;;;;;;23.57;95.88;95792.47;5073455;28;20445;-56
2023/06/22 05:48:16;;;;;;;0.70;0.60;;;;;;;23.28;89.99;95792.66;5067996;28;20434;-59
2023/06/22 05:50:44;;;;;;;0.90;0.87;;;;;;;23.61;87.42;95785.25;5065793;28;20469;-57
2023/06/22 05:53:12;;;;;;;0.50;0.40;;;;;;;24.23;87.27;95778.59;5073366;28;21047;-55
2023/06/22 05:55:42;;;;;;;0.70;0.70;;;;;;;24.28;87.09;95778.34;5073622;28;20445;-57
2023/06/22 05:58:10;;;;;;;2.50;0.90;;;;;;;23.97;87.59;95773.56;5073236;28;20502;-54
2023/06/22 06:00:39;;;;;;;0.70;0.70;;;;;;;24.07;88.03;95737.88;5073325;28;20437;-54
2023/06/22 06:03:10;;;;;;;2.47;0.70;;;;;;;23.93;87.72;95776.16;5073542;28;20437;-56
2023/06/22 06:05:41;;;;;;;9.63;2.10;;;;;;;23.96;84.83;95763.84;5072826;28;20441;-55
2023/06/22 06:08:11;;;;;;;0.90;0.90;;;;;;;24.39;85.83;95773.97;5073427;28;20452;-55
2023/06/22 06:10:40;;;;;;;0.73;0.70;;;;;;;24.34;86.83;95777.72;5072876;28;20583;-54
2023/06/22 06:13:08;;;;;;;1.90;1.67;;;;;;;23.69;87.75;95778.91;5073564;28;20437;-56
2023/06/22 06:15:36;;;;;;;2.33;2.10;;;;;;;24.27;86.04;95774.03;5073017;28;20449;-55
2023/06/22 06:18:06;;;;;;;1.10;1.10;;;;;;;24.37;86.11;95774.34;5073304;28;20472;-55
2023/06/22 06:20:36;;;;;;;1.03;0.90;;;;;;;24.41;84.58;95775.22;5073098;28;20469;-55
2023/06/22 06:23:05;;;;;;;1.93;1.47;;;;;;;24.12;87.06;95772.06;5072605;28;20470;-55
2023/06/22 06:25:33;;;;;;;2.10;1.37;;;;;;;24.42;87.80;95763.25;5072644;28;20437;-55
2023/06/22 06:28:01;;;;;;;2.30;1.43;;;;;;;24.41;84.13;95772.50;5072415;28;20496;-55
2023/06/22 06:30:29;;;;;;;8.23;1.20;;;;;;;24.20;85.38;95768.44;5072633;28;20611;-55
2023/06/22 06:32:58;;;;;;;0.93;0.80;;;;;;;24.52;83.64;95759.25;5072930;28;20449;-55
2023/06/22 06:35:27;;;;;;;0.83;0.83;;;;;;;24.50;83.80;95762.31;5072800;28;20473;-55
2023/06/22 06:37:57;;;;;;;0.60;0.60;;;;;;;25.35;79.98;95769.13;5071617;28;20453;-55
2023/06/22 06:40:26;;;;;;;0.70;0.70;;;;;;;24.96;79.98;95768.97;5072591;28;20438;-55
2023/06/22 06:42:54;;;;;;;2.20;0.90;;;;;;;25.61;78.15;95770.16;5072062;28;20442;-55
2023/06/22 06:45:25;;;;;;;2.50;2.23;;;;;;;25.34;79.35;95772.97;5072431;28;20442;-56
2023/06/22 06:47:53;;;;;;;0.87;0.87;;;;;;;25.92;75.67;95776.63;5072438;28;20438;-55
2023/06/22 06:50:23;;;;;;;1.53;1.27;;;;;;;25.74;76.07;95774.31;5072384;28;20552;-55
2023/06/22 06:52:51;;;;;;;1.50;1.40;;;;;;;26.11;75.15;95771.22;5071903;28;20446;-56
2023/06/22 06:55:23;;;;;;;1.33;1.33;;;;;;;25.68;73.57;95772.22;5072233;28;20438;-56
2023/06/22 06:57:52;;;;;;;1.00;1.00;;;;;;;26.18;72.90;95771.41;5072196;28;20430;-56
2023/06/22 07:00:21;;;;;;;1.40;1.30;;;;;;;26.92;70.60;95770.09;5072613;28;20440;-56
2023/06/22 07:02:50;;;;;;;4.30;1.80;;;;;;;26.81;70.87;95769.16;5071736;28;20445;-56
2023/06/22 07:05:18;;;;;;;2.23;0.90;;;;;;;27.01;70.18;95770.66;5071259;28;20477;-55
2023/06/22 07:07:47;;;;;;;1.20;0.77;;;;;;;27.62;67.93;95748.72;5072177;28;20480;-55
2023/06/22 07:10:16;;;;;;;1.33;1.23;;;;;;;27.84;64.72;95747.06;5071943;28;20465;-56
2023/06/22 07:12:46;;;;;;;0.70;0.70;;;;;;;27.94;64.39;95754.59;5072069;28;21008;-57
2023/06/22 07:15:15;;;;;;;1.33;1.23;;;;;;;28.61;62.25;95745.34;5070725;28;20560;-55
2023/06/22 07:17:43;;;;;;;1.37;1.30;;;;;;;28.33;62.95;95748.47;5072205;28;20515;-55
2023/06/22 07:20:12;;;;;;;1.70;1.60;;;;;;;27.82;65.13;95744.72;5071836;28;20480;-54
2023/06/22 07:22:43;;;;;;;1.50;1.40;;;;;;;27.34;61.16;95721.03;5071908;28;20452;-55
2023/06/22 07:25:14;;;;;;;1.23;1.13;;;;;;;28.29;61.61;95753.13;5071340;28;20442;-55
2023/06/22 07:27:48;;;;;;;0.70;0.67;;;;;;;29.31;59.88;95742.50;5071864;28;20518;-55
2023/06/22 07:30:16;;;;;;;0.60;0.60;;;;;;;29.25;58.57;95741.25;5071707;28;20460;-55
2023/06/22 07:32:44;;;;;;;0.53;0.53;;;;;;;29.28;59.47;95748.69;5071424;28;20500;-54
2023/06/22 07:35:13;;;;;;;1.03;0.93;;;;;;;29.74;58.88;95746.28;5071310;28;20441;-55
2023/06/22 07:37:41;;;;;;;1.13;0.70;;;;;;;30.25;56.74;95745.41;5071498;28;20941;-55
2023/06/22 07:40:11;;;;;;;1.13;0.80;;;;;;;30.10;55.50;95739.88;5071116;28;20445;-55
2023/06/22 07:42:39;;;;;;;1.00;0.93;;;;;;;30.06;55.48;95736.31;5071612;28;20437;-63
2023/06/22 07:45:09;;;;;;;8.07;1.00;;;;;;;29.74;57.98;95745.50;5045222;28;20485;-63
2023/06/22 07:47:38;;;;;;;3.33;0.87;;;;;;;30.09;56.83;95732.03;5071179;28;20536;-56
2023/06/22 07:50:07;;;;;;;1.73;1.63;;;;;;;29.33;54.90;95733.91;5071302;28;20441;-59
2023/06/22 07:52:35;;;;;;;2.40;1.87;;;;;;;29.27;55.00;95738.94;5071114;28;20486;-57
2023/06/22 07:55:04;;;;;;;1.67;1.57;;;;;;;29.88;54.85;95726.50;5071307;28;20950;-57
2023/06/22 07:57:36;;;;;;;0.70;0.70;;;;;;;30.52;53.77;95730.25;5071311;28;20455;-57
2023/06/22 08:00:12;;;;;;;0.80;0.57;;;;;;;31.20;54.15;95721.78;5071614;28;20797;-57
2023/06/22 08:02:43;;;;;;;0.83;0.83;;;;;;;31.50;53.36;95699.47;5070849;28;20971;-58
2023/06/22 08:05:12;;;;;;;1.13;0.63;;;;;;;31.83;52.37;95720.13;5065219;28;20449;-57
2023/06/22 08:07:49;;;;;;;0.50;0.50;;;;;;;31.54;51.34;95707.69;5045944;28;20433;-56
2023/06/22 08:10:18;;;;;;;0.67;0.67;;;;;;;32.33;49.99;95699.63;5070585;28;20508;-56
2023/06/22 08:12:47;;;;;;;1.03;0.80;;;;;;;31.64;52.41;95712.38;5071045;28;20484;-55
2023/06/22 08:15:15;;;;;;;1.33;1.17;;;;;;;31.37;51.20;95707.28;5071188;28;20837;-55
2023/06/22 08:17:46;;;;;;;0.50;0.50;;;;;;;31.22;50.41;95648.22;5071418;28;20494;-55
2023/06/22 08:20:14;;;;;;;2.90;0.60;;;;;;;32.68;48.73;95697.88;5070843;28;21067;-55
2023/06/22 08:22:43;;;;;;;1.10;0.80;;;;;;;32.20;49.07;95692.25;5071182;28;20444;-55
2023/06/22 08:25:13;;;;;;;1.33;0.83;;;;;;;32.27;48.88;95692.97;5071229;28;20785;-53
2023/06/22 08:27:41;;;;;;;3.70;0.93;;;;;;;32.32;49.63;95681.59;5071349;28;20444;-54
2023/06/22 08:30:11;;;;;;;1.00;1.00;;;;;;;31.83;49.36;95679.00;5070903;28;20437;-54
2023/06/22 08:32:40;;;;;;;1.30;1.20;;;;;;;31.78;46.05;95684.91;5070816;28;20512;-54
2023/06/22 08:35:10;;;;;;;1.37;1.27;;;;;;;32.02;46.66;95681.34;5070267;28;20441;-54
2023/06/22 08:37:39;;;;;;;0.80;0.40;;;;;;;32.50;48.83;95671.31;5071209;28;20511;-54
2023/06/22 08:40:10;;;;;;;2.90;0.80;;;;;;;32.85;46.45;95670.28;5070352;28;20436;-54
2023/06/22 08:42:41;;;;;;;1.27;1.17;;;;;;;33.04;46.46;95669.00;5070885;28;20879;-53
2023/06/22 08:45:11;;;;;;;1.50;1.40;;;;;;;33.08;44.46;95669.75;5070774;28;20858;-54
2023/06/22 08:47:40;;;;;;;0.60;0.40;;;;;;;33.56;44.95;95659.50;5070878;28;20500;-54
2023/06/22 08:50:12;;;;;;;0.50;0.50;;;;;;;33.11;44.10;95594.78;5071090;28;20937;-55
2023/06/22 08:52:42;;;;;;;1.37;1.30;;;;;;;33.20;45.08;95661.00;5074050;28;20555;-55
2023/06/22 08:55:11;;;;;;;2.40;1.97;;;;;;;31.79;44.83;95648.91;5074540;28;20864;-55
2023/06/22 08:57:40;;;;;;;1.13;1.03;;;;;;;32.14;44.90;95600.56;5074890;28;20432;-54
2023/06/22 09:00:16;;;;;;;0.73;0.60;;;;;;;32.75;44.44;95662.91;5074417;28;20502;-55
2023/06/22 09:02:44;;;;;;;1.00;1.00;;;;;;;33.31;45.15;95666.41;5074482;28;20439;-55
2023/06/22 09:05:15;;;;;;;0.93;0.40;;;;;;;33.45;46.04;95674.50;5074417;28;20495;-55
2023/06/22 09:07:44;;;;;;;1.03;1.03;;;;;;;32.77;46.40;95594.66;5074530;28;20467;-55
2023/06/22 09:10:12;;;;;;;0.60;0.60;;;;;;;33.80;45.90;95657.69;5074226;28;20481;-55
2023/06/22 09:12:42;;;;;;;1.60;1.23;;;;;;;32.73;43.54;95637.84;5066856;28;20511;-55
2023/06/22 09:15:11;;;;;;;1.20;1.20;;;;;;;33.32;43.67;95648.75;5068426;28;20459;-55
2023/06/22 09:17:44;;;;;;;1.50;1.40;;;;;;;33.08;45.33;95634.84;5074115;28;20437;-56
2023/06/22 09:20:15;;;;;;;1.50;1.33;;;;;;;32.87;46.74;95653.41;5074048;28;20524;-56
2023/06/22 09:22:43;;;;;;;1.17;0.70;;;;;;;32.64;47.06;95643.78;5073926;28;20992;-56
2023/06/22 09:25:12;;;;;;;0.60;0.50;;;;;;;33.40;45.75;95640.00;5074101;28;20444;-55
2023/06/22 09:27:40;;;;;;;0.90;0.60;;;;;;;34.47;45.50;95637.56;5074004;28;20876;-55
2023/06/22 09:30:09;;;;;;;1.10;1.00;;;;;;;35.08;43.72;95641.78;5073724;28;20436;-55
2023/06/22 09:32:38;;;;;;;0.70;0.70;;;;;;;35.27;43.06;95631.97;5073842;28;20643;-55
2023/06/22 09:35:08;;;;;;;0.90;0.80;;;;;;;34.55;42.31;95636.28;5073815;28;20194;-56
2023/06/22 09:37:38;;;;;;;1.10;0.73;;;;;;;34.22;44.18;95635.16;5074218;28;20451;-56
2023/06/22 09:40:10;;;;;;;0.63;0.63;;;;;;;34.12;44.62;95624.28;5073782;28;20260;-56
2023/06/22 09:42:39;;;;;;;1.43;1.07;;;;;;;33.89;43.26;95633.22;5073880;28;20198;-56
2023/06/22 09:45:09;;;;;;;2.37;0.57;;;;;;;34.29;42.34;95628.78;5047140;28;20201;-56
2023/06/22 09:47:37;;;;;;;0.50;0.50;;;;;;;34.72;44.12;95629.72;5073869;28;20202;-54
2023/06/22 09:50:07;;;;;;;0.70;0.70;;;;;;;34.47;43.46;95626.56;5073763;28;20737;-56
2023/06/22 09:52:35;;;;;;;0.63;0.63;;;;;;;34.71;43.56;95625.41;5073414;28;20539;-55
2023/06/22 09:55:09;;;;;;;1.20;1.10;;;;;;;34.86;41.96;95617.72;5073482;28;20267;-55
2023/06/22 09:57:37;;;;;;;0.97;0.90;;;;;;;35.44;42.58;95608.06;5073302;28;20233;-55
2023/06/22 10:00:10;;;;;;;0.60;0.60;;;;;;;35.07;41.86;95600.84;5073534;28;20191;-55
2023/06/22 10:02:39;;;;;;;2.47;1.13;;;;;;;35.34;40.46;95609.03;5071504;28;20195;-55
2023/06/22 10:05:08;;;;;;;1.33;1.23;;;;;;;35.98;39.33;95603.81;5073345;28;20198;-56
2023/06/22 10:07:42;;;;;;;0.63;0.63;;;;;;;36.86;39.16;95607.38;5068529;28;20206;-56
2023/06/22 10:10:13;;;;;;;0.85;0.70;;;;;;;36.04;39.59;95588.38;5066279;28;20230;-56
2023/06/22 10:12:44;;;;;;;0.88;0.75;;;;;;;35.36;38.44;95587.34;5047167;28;20222;-56
2023/06/22 10:15:12;;;;;;;0.57;0.55;;;;;;;35.58;40.50;95594.00;5073575;28;20194;-55
2023/06/22 10:17:41;;;;;;;0.50;0.50;;;;;;;36.46;39.29;95588.63;5064683;28;20282;-56
2023/06/22 10:20:12;;;;;;;0.70;0.70;;;;;;;36.38;39.54;95582.50;5068851;28;20206;-56
2023/06/22 10:22:41;;;;;;;0.50;0.50;;;;;;;35.32;41.21;95562.56;5073141;28;20264;-56
2023/06/22 10:25:13;;;;;;;0.70;0.70;;;;;;;36.45;39.92;95568.50;5072683;28;20629;-55
2023/06/22 10:27:42;;;;;;;1.30;0.50;;;;;;;37.03;37.72;95577.78;5073177;28;20230;-56
2023/06/22 10:30:13;;;;;;;0.40;0.40;;;;;;;37.69;37.81;95568.91;5072387;28;20558;-55
2023/06/22 10:32:42;;;;;;;0.60;0.60;;;;;;;37.03;37.29;95569.50;5072490;28;20233;-55
2023/06/22 10:35:13;;;;;;;0.50;0.50;;;;;;;37.39;37.43;95561.81;5072647;28;20203;-55
2023/06/22 10:37:43;;;;;;;0.30;0.30;;;;;;;38.29;34.77;95564.34;5072509;28;20293;-55
2023/06/22 10:40:14;;;;;;;1.00;0.50;;;;;;;37.48;37.46;95555.66;5072861;28;20256;-55
2023/06/22 10:42:43;;;;;;;1.05;0.70;;;;;;;36.46;38.10;95553.47;5072240;28;20290;-56
2023/06/22 10:45:13;;;;;;;1.10;0.82;;;;;;;35.33;38.58;95560.59;5072419;28;20198;-56
2023/06/22 10:47:42;;;;;;;0.60;0.60;;;;;;;35.20;39.45;95548.66;5072254;28;20501;-55
2023/06/22 10:50:12;;;;;;;0.85;0.85;;;;;;;35.14;38.52;95553.09;5072534;28;20268;-55
2023/06/22 10:52:41;;;;;;;0.47;0.45;;;;;;;35.07;38.29;95552.03;5072214;28;20554;-55
2023/06/22 10:55:10;;;;;;;0.70;0.65;;;;;;;34.99;39.91;95555.31;5072376;28;20583;-55
2023/06/22 10:57:44;;;;;;;0.70;0.70;;;;;;;34.92;41.40;95552.66;5072034;28;20206;-55
2023/06/22 11:00:15;;;;;;;0.43;0.43;;;;;;;35.72;39.07;95546.06;5072277;28;20194;-55
2023/06/22 11:03:03;;;;;;;0.60;0.40;;;;;;;35.57;38.85;95540.09;5072069;28;20231;-55
2023/06/22 11:05:32;;;;;;;1.02;1.02;;;;;;;35.87;38.25;95536.28;5071657;28;20198;-55
2023/06/22 11:08:01;;;;;;;0.70;0.60;;;;;;;35.09;37.40;95533.09;5072370;28;20599;-55
2023/06/22 11:10:29;;;;;;;1.88;0.82;;;;;;;34.16;37.66;95523.22;5071908;28;20847;-55
2023/06/22 11:12:59;;;;;;;0.80;0.70;;;;;;;33.78;36.55;95528.84;5072088;28;20313;-55
2023/06/22 11:15:28;;;;;;;0.40;0.30;;;;;;;34.52;37.33;95529.72;5072055;28;20610;-55
2023/06/22 11:17:56;;;;;;;0.57;0.50;;;;;;;35.25;39.13;95523.34;5071992;28;20285;-55
2023/06/22 11:20:25;;;;;;;0.40;0.30;;;;;;;35.17;39.69;95533.72;5071593;28;20199;-55
2023/06/22 11:22:54;;;;;;;0.80;0.80;;;;;;;34.51;42.59;95530.16;5072086;28;20201;-55
2023/06/22 11:25:22;;;;;;;0.30;0.30;;;;;;;34.74;39.98;95525.44;5071300;28;20202;-55
2023/06/22 11:27:51;;;;;;;0.40;0.30;;;;;;;34.65;41.84;95525.22;5071805;28;20199;-55
2023/06/22 11:30:20;;;;;;;0.47;0.47;;;;;;;33.01;40.77;95299.81;5071269;28;20206;-55
2023/06/22 11:32:49;;;;;;;0.93;0.90;;;;;;;34.25;40.47;95529.00;5071553;28;20658;-55
2023/06/22 11:35:17;;;;;;;0.80;0.70;;;;;;;33.84;42.02;95537.41;5071008;28;20698;-56
2023/06/22 11:37:45;;;;;;;0.50;0.50;;;;;;;32.58;44.73;95469.75;5071617;28;20203;-56
2023/06/22 11:40:14;;;;;;;0.87;0.87;;;;;;;33.04;43.51;95537.94;5070863;28;20208;-56